Terminal Aerodrome Forecast
Issued by NWS

Home | Current Version | Previous Version | Text Only | Print | Product List | Glossary On
Versions: 1 2 3 4 5 6 7 8 9 10 11 12 13 14 15 16 17 18 19 20 21 22 23
000
FTAK31 PAFA 301732
TAFAOR
TAF
PAOR 301732Z 3018/3118 00000KT P6SM -SN BKN004
      TEMPO 3018/3021 4SM -SN BKN002
     FM302100 31005KT 4SM -SN SCT010 OVC020
      TEMPO 3021/3101 1SM -SN BR OVC010
     FM310100 31005KT 2SM -SN BR OVC008
     FM311300 32004KT 1SM BR OVC003=

USA.gov is the U.S. government's official web portal to all federal, state and local government web resources and services.